Terminal Aerodrome Forecast
Issued by NWS Melbourne, FL

Home | Current Version | Previous Version | Text Only | Print | Product List | Glossary On
Versions: 1 2 3 4 5 6 7 8 9 10 11 12 13 14 15 16 17 18 19 20 21 22 23 24 25 26
000
FTUS42 KMLB 171740
TAFMCO
TAF
KMCO 171740Z 1718/1818 02014G21KT P6SM VCSH SCT020 BKN150 BKN200
      TEMPO 1719/1722 3SM SHRA BKN025
     FM180300 36008KT P6SM SCT025 BKN050
     FM181200 02010KT P6SM SCT025 BKN100=

USA.gov is the U.S. government's official web portal to all federal, state and local government web resources and services.